createdAt,value
2023-04-30T00:02:07.485Z,14.18
2023-04-30T00:05:04.854Z,12.63
2023-04-30T00:08:01.669Z,15.02
2023-04-30T00:10:58.509Z,13.30
2023-04-30T00:13:57.076Z,14.13
2023-04-30T00:16:53.930Z,14.07
2023-04-30T00:19:50.866Z,18.25
2023-04-30T00:22:47.689Z,15.80
2023-04-30T00:25:44.558Z,16.83
2023-04-30T00:28:41.444Z,17.63
2023-04-30T00:31:38.509Z,16.30
2023-04-30T00:34:35.443Z,17.35
2023-04-30T00:37:32.629Z,16.45
2023-04-30T00:40:30.217Z,14.95
2023-04-30T00:43:27.275Z,16.00
2023-04-30T00:46:24.181Z,14.55
2023-04-30T00:49:21.162Z,15.02
2023-04-30T00:52:18.036Z,19.00
2023-04-30T00:55:14.955Z,17.88
2023-04-30T00:58:11.894Z,16.95
2023-04-30T01:01:09.071Z,16.88
2023-04-30T01:04:06.282Z,14.10
2023-04-30T01:07:03.442Z,16.02
2023-04-30T01:10:00.825Z,16.02
2023-04-30T01:13:16.096Z,15.27
2023-04-30T01:16:28.037Z,14.55
2023-04-30T01:19:44.916Z,14.40
2023-04-30T01:23:10.981Z,14.27
2023-04-30T01:27:08.772Z,16.55
2023-04-30T01:30:06.529Z,15.45
2023-04-30T01:33:03.965Z,14.55
2023-04-30T01:36:42.458Z,16.63
2023-04-30T01:40:19.890Z,14.10
2023-04-30T01:43:34.026Z,13.90
2023-04-30T01:46:31.550Z,13.35
2023-04-30T01:50:05.957Z,14.63
2023-04-30T01:53:06.809Z,13.05
2023-04-30T01:59:04.051Z,11.13
2023-04-30T02:02:01.352Z,15.23
2023-04-30T02:04:58.206Z,12.13
2023-04-30T02:07:55.414Z,13.27
2023-04-30T02:10:52.284Z,13.75
2023-04-30T02:13:49.108Z,14.25
2023-04-30T02:16:45.970Z,13.48
2023-04-30T02:19:42.789Z,12.55
2023-04-30T02:22:39.626Z,14.15
2023-04-30T02:25:38.642Z,10.85
2023-04-30T02:28:36.167Z,12.63
2023-04-30T02:31:33.104Z,18.23
2023-04-30T02:34:29.955Z,10.20
2023-04-30T02:37:26.874Z,15.57
2023-04-30T02:40:23.739Z,13.23
2023-04-30T02:43:20.606Z,11.50
2023-04-30T02:46:18.541Z,11.52
2023-04-30T02:49:15.468Z,13.13
2023-04-30T02:52:12.273Z,11.82
2023-04-30T02:55:09.446Z,13.63
2023-04-30T02:58:06.258Z,12.75
2023-04-30T03:01:03.368Z,12.38
2023-04-30T03:04:00.299Z,15.30
2023-04-30T03:06:57.102Z,13.25
2023-04-30T03:09:54.106Z,18.05
2023-04-30T03:12:51.172Z,12.90
2023-04-30T03:15:47.997Z,15.00
2023-04-30T03:18:49.057Z,16.20
2023-04-30T03:21:46.472Z,14.50
2023-04-30T03:24:43.316Z,16.02
2023-04-30T03:27:40.116Z,20.08
2023-04-30T03:30:36.927Z,14.15
2023-04-30T03:33:34.220Z,16.67
2023-04-30T03:36:31.352Z,21.13
2023-04-30T03:39:28.261Z,16.55
2023-04-30T03:42:25.050Z,18.55
2023-04-30T03:45:21.861Z,19.75
2023-04-30T03:48:18.730Z,17.73
2023-04-30T03:51:15.609Z,17.85
2023-04-30T03:54:12.487Z,19.88
2023-04-30T03:57:10.698Z,15.15
2023-04-30T04:00:10.095Z,15.60
2023-04-30T04:03:07.512Z,18.05
2023-04-30T04:06:05.449Z,16.27
2023-04-30T04:09:02.535Z,17.98
2023-04-30T04:11:59.351Z,19.33
2023-04-30T04:14:56.257Z,18.50
2023-04-30T04:17:53.133Z,18.38
2023-04-30T04:20:50.004Z,15.05
2023-04-30T04:23:46.973Z,16.98
2023-04-30T04:26:44.239Z,18.30
2023-04-30T04:29:42.178Z,15.77
2023-04-30T04:32:48.203Z,17.35
2023-04-30T04:35:45.091Z,15.95
2023-04-30T04:38:42.352Z,16.45
2023-04-30T04:41:39.689Z,18.80
2023-04-30T04:44:36.522Z,20.05
2023-04-30T04:47:33.485Z,18.63
2023-04-30T04:50:30.705Z,17.27
2023-04-30T04:53:27.589Z,16.92
2023-04-30T04:56:24.578Z,19.95
2023-04-30T04:59:21.678Z,18.10
2023-04-30T05:02:18.719Z,18.65
2023-04-30T05:05:15.744Z,17.67
2023-04-30T05:08:12.784Z,16.70
2023-04-30T05:11:09.729Z,19.38
2023-04-30T05:14:07.142Z,17.65
2023-04-30T05:17:03.983Z,18.63
2023-04-30T05:20:00.992Z,19.85
2023-04-30T05:22:57.899Z,19.50
2023-04-30T05:25:55.340Z,19.52
2023-04-30T05:28:52.552Z,18.85
2023-04-30T05:31:49.804Z,19.83
2023-04-30T05:34:46.634Z,21.65
2023-04-30T05:37:43.491Z,22.25
2023-04-30T05:40:41.012Z,22.08
2023-04-30T05:43:37.827Z,26.70
2023-04-30T05:46:35.445Z,26.15
2023-04-30T05:49:33.705Z,25.95
2023-04-30T05:52:32.742Z,31.20
2023-04-30T05:55:29.581Z,31.08
2023-04-30T05:58:26.423Z,29.83
2023-04-30T06:01:25.379Z,31.45
2023-04-30T06:04:22.507Z,26.50
2023-04-30T06:07:19.300Z,22.77
2023-04-30T06:10:16.201Z,24.40
2023-04-30T06:13:14.764Z,29.50
2023-04-30T06:16:11.782Z,29.65
2023-04-30T06:19:08.828Z,28.45
2023-04-30T06:22:06.237Z,33.20
2023-04-30T06:25:03.555Z,26.73
2023-04-30T06:28:00.470Z,26.60
2023-04-30T06:30:57.981Z,27.63
2023-04-30T06:33:54.907Z,30.85
2023-04-30T06:36:51.745Z,28.08
2023-04-30T06:39:49.342Z,25.90
2023-04-30T06:42:47.612Z,26.52
2023-04-30T06:45:44.697Z,24.73
2023-04-30T06:48:41.838Z,25.38
2023-04-30T06:51:38.676Z,23.15
2023-04-30T06:54:35.514Z,22.60
2023-04-30T06:57:32.452Z,21.70
2023-04-30T07:00:29.468Z,22.08
2023-04-30T07:03:27.330Z,19.10
2023-04-30T07:06:24.273Z,21.00
2023-04-30T07:09:21.160Z,20.48
2023-04-30T07:12:18.317Z,18.83
2023-04-30T07:15:15.195Z,17.63
2023-04-30T07:18:12.306Z,18.45
2023-04-30T07:21:09.285Z,16.25
2023-04-30T07:24:06.257Z,16.58
2023-04-30T07:27:04.014Z,14.90
2023-04-30T07:30:00.878Z,14.38
2023-04-30T07:32:57.776Z,15.57
2023-04-30T07:35:56.601Z,12.65
2023-04-30T07:38:53.568Z,16.98
2023-04-30T07:41:50.523Z,14.30
2023-04-30T07:44:48.875Z,11.55
2023-04-30T07:47:47.571Z,11.75
2023-04-30T07:50:47.163Z,11.43
2023-04-30T07:53:43.980Z,12.45
2023-04-30T07:56:41.869Z,9.55
2023-04-30T07:59:38.680Z,8.25
2023-04-30T08:02:37.389Z,11.18
2023-04-30T08:05:34.370Z,13.50
2023-04-30T08:08:31.196Z,8.20
2023-04-30T08:11:27.989Z,7.30
2023-04-30T08:14:24.904Z,8.18
2023-04-30T08:17:21.820Z,8.20
2023-04-30T08:20:19.176Z,7.32
2023-04-30T08:23:16.945Z,8.32
2023-04-30T08:26:13.784Z,6.72
2023-04-30T08:29:10.821Z,6.70
2023-04-30T08:32:08.973Z,8.52
2023-04-30T08:35:06.880Z,7.38
2023-04-30T08:38:03.744Z,7.18
2023-04-30T08:41:13.070Z,5.97
2023-04-30T08:44:12.147Z,6.30
2023-04-30T08:47:13.270Z,5.65
2023-04-30T08:50:10.393Z,6.40
2023-04-30T08:53:10.903Z,5.05
2023-04-30T08:56:11.355Z,6.18
2023-04-30T08:59:08.268Z,5.97
2023-04-30T09:02:06.078Z,4.78
2023-04-30T09:05:03.517Z,4.22
2023-04-30T09:08:03.783Z,5.07
2023-04-30T09:11:01.429Z,3.53
2023-04-30T09:14:00.822Z,5.00
2023-04-30T09:16:57.773Z,4.65
2023-04-30T09:19:54.750Z,4.57
2023-04-30T09:23:09.777Z,7.22
2023-04-30T09:26:06.723Z,3.88
2023-04-30T09:29:07.996Z,3.75
2023-04-30T09:32:09.871Z,5.80
2023-04-30T09:35:07.049Z,3.42
2023-04-30T09:38:05.596Z,6.80
2023-04-30T09:41:02.704Z,5.38
2023-04-30T09:43:59.588Z,5.47
2023-04-30T09:46:58.734Z,3.58
2023-04-30T09:49:56.176Z,3.85
2023-04-30T09:52:54.162Z,2.70
2023-04-30T09:55:52.176Z,3.35
2023-04-30T09:58:55.135Z,2.38
2023-04-30T10:01:53.263Z,3.58
2023-04-30T10:04:56.436Z,2.75
2023-04-30T10:07:53.642Z,2.70
2023-04-30T10:10:58.246Z,4.10
2023-04-30T10:14:03.528Z,3.50
2023-04-30T10:17:21.130Z,3.25
2023-04-30T10:20:19.022Z,3.00
2023-04-30T10:23:16.487Z,2.92
2023-04-30T10:26:14.254Z,2.90
2023-04-30T10:29:12.993Z,4.07
2023-04-30T10:32:13.065Z,2.20
2023-04-30T10:38:25.223Z,2.42
2023-04-30T10:41:22.145Z,2.75
2023-04-30T10:44:22.920Z,4.05
2023-04-30T10:47:19.935Z,2.60
2023-04-30T10:50:17.318Z,3.42
2023-04-30T10:53:17.615Z,3.10
2023-04-30T10:56:14.449Z,3.15
2023-04-30T10:59:12.491Z,2.78
2023-04-30T11:02:11.707Z,2.45
2023-04-30T11:05:13.376Z,4.05
2023-04-30T11:08:13.297Z,2.85
2023-04-30T11:11:11.241Z,3.00
2023-04-30T11:14:08.217Z,2.90
2023-04-30T11:17:05.077Z,2.58
2023-04-30T11:20:02.290Z,2.90
2023-04-30T11:23:22.078Z,1.58
2023-04-30T11:26:26.939Z,2.97
2023-04-30T11:29:24.652Z,3.30
2023-04-30T11:32:24.532Z,3.42
2023-04-30T11:35:21.458Z,2.65
2023-04-30T11:38:25.516Z,3.05
2023-04-30T11:41:23.337Z,2.67
2023-04-30T11:44:27.004Z,3.40
2023-04-30T11:47:23.943Z,2.50
2023-04-30T11:50:30.077Z,2.65
2023-04-30T11:53:31.028Z,2.28
2023-04-30T11:56:28.088Z,1.27
2023-04-30T11:59:24.912Z,1.25
2023-04-30T12:02:22.088Z,1.70
2023-04-30T12:05:25.090Z,3.45
2023-04-30T12:08:22.042Z,1.52
2023-04-30T12:11:28.469Z,3.53
2023-04-30T12:14:26.113Z,2.53
2023-04-30T12:17:34.701Z,1.23
2023-04-30T12:20:32.476Z,2.00
2023-04-30T12:23:29.401Z,2.40
2023-04-30T12:26:39.854Z,1.83
2023-04-30T12:29:45.580Z,0.88
2023-04-30T12:32:45.192Z,6.05
2023-04-30T12:35:43.637Z,1.30
2023-04-30T12:38:47.296Z,1.65
2023-04-30T12:41:49.668Z,1.42
2023-04-30T12:44:46.660Z,2.38
2023-04-30T12:47:43.680Z,1.05
2023-04-30T12:50:41.009Z,1.20
2023-04-30T12:53:47.252Z,1.52
2023-04-30T12:57:06.911Z,2.72
2023-04-30T13:00:05.579Z,3.45
2023-04-30T13:03:02.488Z,0.68
2023-04-30T13:06:01.688Z,1.13
2023-04-30T13:08:59.172Z,1.80
2023-04-30T13:11:56.224Z,2.90
2023-04-30T13:14:53.013Z,1.42
2023-04-30T13:17:49.956Z,0.65
2023-04-30T13:20:46.838Z,1.85
2023-04-30T13:23:51.827Z,1.60
2023-04-30T13:26:50.122Z,1.42
2023-04-30T13:29:47.227Z,0.50
2023-04-30T13:32:45.626Z,2.28
2023-04-30T13:35:42.545Z,1.98
2023-04-30T13:38:39.537Z,1.20
2023-04-30T13:41:36.657Z,1.23
2023-04-30T13:44:33.820Z,1.70
2023-04-30T13:47:30.710Z,1.13
2023-04-30T13:50:27.535Z,0.95
2023-04-30T13:53:24.426Z,0.85
2023-04-30T13:56:21.379Z,0.98
2023-04-30T13:59:18.917Z,1.00
2023-04-30T14:02:15.989Z,0.80
2023-04-30T14:05:12.793Z,1.92
2023-04-30T14:08:09.654Z,1.60
2023-04-30T14:11:06.764Z,0.98
2023-04-30T14:14:03.885Z,0.47
2023-04-30T14:17:01.975Z,1.65
2023-04-30T14:19:59.218Z,1.55
2023-04-30T14:22:56.432Z,0.98
2023-04-30T14:25:54.097Z,0.75
2023-04-30T14:28:51.112Z,1.17
2023-04-30T14:31:48.230Z,1.08
2023-04-30T14:34:45.227Z,3.88
2023-04-30T14:37:42.053Z,1.13
2023-04-30T14:40:38.902Z,1.48
2023-04-30T14:43:35.760Z,4.15
2023-04-30T14:46:33.656Z,0.88
2023-04-30T14:49:31.267Z,1.25
2023-04-30T14:52:28.234Z,1.67
2023-04-30T14:55:25.098Z,2.50
2023-04-30T14:58:22.279Z,2.03
2023-04-30T15:01:19.172Z,2.45
2023-04-30T15:04:16.107Z,2.45
2023-04-30T15:07:13.225Z,2.13
2023-04-30T15:10:10.938Z,1.35
2023-04-30T15:13:07.984Z,1.98
2023-04-30T15:16:05.847Z,5.70
2023-04-30T15:19:03.751Z,3.13
2023-04-30T15:22:00.579Z,2.53
2023-04-30T15:24:57.784Z,3.95
2023-04-30T15:27:55.228Z,1.55
2023-04-30T15:30:55.178Z,2.70
2023-04-30T15:33:52.236Z,3.55
2023-04-30T15:36:50.066Z,1.10
2023-04-30T15:39:48.398Z,1.85
2023-04-30T15:42:47.251Z,2.67
2023-04-30T15:45:45.927Z,2.13
2023-04-30T15:48:42.799Z,1.58
2023-04-30T15:51:39.596Z,2.60
2023-04-30T15:54:36.400Z,3.47
2023-04-30T15:57:33.237Z,2.78
2023-04-30T16:00:30.448Z,4.00
2023-04-30T16:03:27.525Z,2.03
2023-04-30T16:06:24.711Z,1.77
2023-04-30T16:09:21.790Z,4.95
2023-04-30T16:12:18.638Z,3.80
2023-04-30T16:15:15.490Z,5.75
2023-04-30T16:18:12.462Z,17.98
2023-04-30T16:21:13.055Z,7.63
2023-04-30T16:24:10.420Z,5.00
2023-04-30T16:27:08.378Z,7.25
2023-04-30T16:30:06.496Z,24.20
2023-04-30T16:33:03.408Z,10.00
2023-04-30T16:36:00.639Z,8.32
2023-04-30T16:38:57.568Z,7.15
2023-04-30T16:41:55.031Z,6.35
2023-04-30T16:44:51.847Z,6.03
2023-04-30T16:47:49.465Z,20.75
2023-04-30T16:50:46.398Z,6.15
2023-04-30T16:53:43.696Z,8.15
2023-04-30T16:56:40.567Z,17.30
2023-04-30T16:59:37.587Z,11.13
2023-04-30T17:02:34.944Z,20.92
2023-04-30T17:05:31.964Z,9.98
2023-04-30T17:08:28.892Z,4.78
2023-04-30T17:11:25.793Z,3.50
2023-04-30T17:14:22.946Z,10.10
2023-04-30T17:17:19.853Z,17.80
2023-04-30T17:20:16.777Z,6.57
2023-04-30T17:23:13.607Z,4.72
2023-04-30T17:26:10.518Z,3.05
2023-04-30T17:29:07.510Z,7.40
2023-04-30T17:32:04.515Z,4.95
2023-04-30T17:35:02.746Z,3.78
2023-04-30T17:38:00.488Z,6.57
2023-04-30T17:40:57.749Z,2.75
2023-04-30T17:43:54.625Z,3.08
2023-04-30T17:46:51.700Z,7.55
2023-04-30T17:49:49.058Z,6.55
2023-04-30T17:52:46.715Z,4.53
2023-04-30T17:55:43.599Z,7.32
2023-04-30T17:58:40.430Z,5.88
2023-04-30T18:01:38.102Z,4.03
2023-04-30T18:04:35.071Z,4.65
2023-04-30T18:07:31.886Z,4.70
2023-04-30T18:10:29.016Z,6.60
2023-04-30T18:13:27.410Z,4.05
2023-04-30T18:16:24.802Z,5.32
2023-04-30T18:19:22.171Z,5.53
2023-04-30T18:22:19.559Z,5.40
2023-04-30T18:25:18.610Z,5.15
2023-04-30T18:28:15.790Z,3.85
2023-04-30T18:31:12.810Z,4.78
2023-04-30T18:34:09.832Z,8.15
2023-04-30T18:37:06.720Z,5.68
2023-04-30T18:40:04.921Z,5.32
2023-04-30T18:43:01.785Z,6.00
2023-04-30T18:45:59.004Z,7.88
2023-04-30T18:48:56.621Z,10.63
2023-04-30T18:51:55.231Z,5.47
2023-04-30T18:54:52.204Z,6.75
2023-04-30T18:57:50.596Z,7.10
2023-04-30T19:00:47.490Z,7.10
2023-04-30T19:03:44.590Z,7.78
2023-04-30T19:06:42.590Z,8.32
2023-04-30T19:09:39.747Z,6.00
2023-04-30T19:12:36.956Z,7.10
2023-04-30T19:15:33.773Z,7.05
2023-04-30T19:18:30.609Z,8.25
2023-04-30T19:21:28.470Z,7.93
2023-04-30T19:24:25.331Z,6.47
2023-04-30T19:27:22.185Z,5.55
2023-04-30T19:30:18.994Z,5.38
2023-04-30T19:33:15.905Z,6.40
2023-04-30T19:36:13.299Z,6.03
2023-04-30T19:39:13.005Z,5.05
2023-04-30T19:42:10.053Z,7.32
2023-04-30T19:45:09.590Z,9.43
2023-04-30T19:48:06.838Z,6.35
2023-04-30T19:51:04.927Z,5.72
2023-04-30T19:54:01.737Z,6.70
2023-04-30T19:56:58.596Z,6.25
2023-04-30T19:59:55.738Z,6.55
2023-04-30T20:02:52.849Z,7.20
2023-04-30T20:05:49.794Z,4.35
2023-04-30T20:08:46.619Z,4.95
2023-04-30T20:11:49.330Z,5.13
2023-04-30T20:14:46.163Z,6.20
2023-04-30T20:17:43.027Z,4.95
2023-04-30T20:20:39.856Z,5.45
2023-04-30T20:23:39.408Z,5.38
2023-04-30T20:26:36.665Z,5.45
2023-04-30T20:29:33.482Z,6.00
2023-04-30T20:32:31.306Z,4.47
2023-04-30T20:35:28.139Z,7.80
2023-04-30T20:38:25.024Z,5.40
2023-04-30T20:41:22.531Z,6.47
2023-04-30T20:44:19.346Z,8.20
2023-04-30T20:47:16.229Z,8.27
2023-04-30T20:50:14.868Z,9.10
2023-04-30T20:53:12.417Z,6.72
2023-04-30T20:56:09.299Z,7.15
2023-04-30T20:59:06.147Z,7.90
2023-04-30T21:02:04.273Z,9.80
2023-04-30T21:05:05.471Z,13.35
2023-04-30T21:08:02.342Z,10.23
2023-04-30T21:10:59.209Z,9.27
2023-04-30T21:13:57.064Z,7.75
2023-04-30T21:16:53.921Z,8.00
2023-04-30T21:19:50.796Z,7.25
2023-04-30T21:22:47.883Z,9.80
2023-04-30T21:25:44.682Z,15.63
2023-04-30T21:28:41.700Z,10.02
2023-04-30T21:31:38.583Z,8.15
2023-04-30T21:34:35.447Z,8.73
2023-04-30T21:37:32.265Z,9.02
2023-04-30T21:40:33.520Z,10.88
2023-04-30T21:43:30.393Z,9.05
2023-04-30T21:46:27.384Z,8.88
2023-04-30T21:49:24.317Z,8.35
2023-04-30T21:52:21.120Z,11.93
2023-04-30T21:55:18.047Z,8.05
2023-04-30T21:58:14.965Z,8.75
2023-04-30T22:01:12.262Z,10.13
2023-04-30T22:04:09.185Z,11.02
2023-04-30T22:07:06.027Z,11.73
2023-04-30T22:10:05.090Z,8.18
2023-04-30T22:13:01.997Z,11.68
2023-04-30T22:15:58.859Z,12.70
2023-04-30T22:18:58.593Z,8.68
2023-04-30T22:21:55.916Z,11.05
2023-04-30T22:24:52.978Z,9.70
2023-04-30T22:27:49.947Z,9.70
2023-04-30T22:30:46.998Z,10.75
2023-04-30T22:33:44.614Z,7.03
2023-04-30T22:36:41.441Z,8.23
2023-04-30T22:39:38.987Z,7.35
2023-04-30T22:42:35.972Z,8.90
2023-04-30T22:45:36.869Z,7.88
2023-04-30T22:48:34.315Z,10.30
2023-04-30T22:51:31.725Z,9.48
2023-04-30T22:54:28.860Z,10.45
2023-04-30T22:57:26.220Z,8.65
2023-04-30T23:00:23.956Z,7.50
2023-04-30T23:03:21.183Z,7.10
2023-04-30T23:06:18.031Z,8.70
2023-04-30T23:09:15.889Z,7.88
2023-04-30T23:12:12.851Z,8.48
2023-04-30T23:15:10.194Z,10.07
2023-04-30T23:18:07.068Z,8.75
2023-04-30T23:21:03.970Z,7.82
2023-04-30T23:24:01.473Z,8.13
2023-04-30T23:26:58.283Z,8.65
2023-04-30T23:29:56.176Z,7.57
2023-04-30T23:32:53.406Z,12.13
2023-04-30T23:35:52.533Z,7.75
2023-04-30T23:38:49.829Z,6.82
2023-04-30T23:41:46.675Z,6.80
2023-04-30T23:44:43.527Z,9.38
2023-04-30T23:47:40.365Z,7.63
2023-04-30T23:50:40.056Z,11.75
2023-04-30T23:53:36.867Z,12.63
2023-04-30T23:56:33.943Z,15.82
2023-04-30T23:59:30.746Z,14.98
